createdAt,value
2022-12-27T00:00:36.271Z,97863.91
2022-12-27T00:02:38.371Z,97864.44
2022-12-27T00:04:39.703Z,97867.66
2022-12-27T00:06:41.132Z,97858.94
2022-12-27T00:08:42.551Z,97862.13
2022-12-27T00:10:43.863Z,97862.19
2022-12-27T00:12:45.162Z,97862.97
2022-12-27T00:14:46.474Z,97865.28
2022-12-27T00:16:47.822Z,97859.25
2022-12-27T00:18:49.533Z,97854.94
2022-12-27T00:20:50.838Z,97876.25
2022-12-27T00:22:52.139Z,97863.53
2022-12-27T00:24:54.401Z,97867.78
2022-12-27T00:26:55.810Z,97859.06
2022-12-27T00:28:57.157Z,97870.09
2022-12-27T00:30:58.479Z,97877.38
2022-12-27T00:32:59.799Z,97880.03
2022-12-27T00:35:01.161Z,97878.53
2022-12-27T00:37:02.570Z,97878.63
2022-12-27T00:39:03.872Z,97884.34
2022-12-27T00:41:05.179Z,97897.00
2022-12-27T00:43:06.527Z,97896.19
2022-12-27T00:45:07.888Z,97894.50
2022-12-27T00:47:09.222Z,97901.22
2022-12-27T00:49:10.603Z,97906.75
2022-12-27T00:51:11.926Z,97916.78
2022-12-27T00:53:13.260Z,97918.41
2022-12-27T00:55:14.592Z,97913.13
2022-12-27T00:57:15.931Z,97914.66
2022-12-27T00:59:17.227Z,97914.50
2022-12-27T01:01:18.710Z,97906.66
2022-12-27T01:03:20.153Z,97903.88
2022-12-27T01:05:22.019Z,97888.31
2022-12-27T01:07:23.369Z,97906.78
2022-12-27T01:09:24.662Z,97905.72
2022-12-27T01:11:26.980Z,97912.41
2022-12-27T01:13:28.329Z,97905.47
2022-12-27T01:15:29.628Z,97916.50
2022-12-27T01:17:30.941Z,97927.41
2022-12-27T01:19:32.391Z,97937.63
2022-12-27T01:21:33.697Z,97946.06
2022-12-27T01:23:34.997Z,97945.19
2022-12-27T01:25:36.347Z,97949.47
2022-12-27T01:27:37.705Z,97958.00
2022-12-27T01:29:39.038Z,97954.59
2022-12-27T01:31:40.450Z,97958.91
2022-12-27T01:33:41.787Z,97962.41
2022-12-27T01:35:43.091Z,97962.44
2022-12-27T01:37:44.430Z,97960.88
2022-12-27T01:39:45.734Z,97972.91
2022-12-27T01:42:05.914Z,97977.31
2022-12-27T01:44:07.247Z,97982.69
2022-12-27T01:46:08.638Z,97985.38
2022-12-27T01:48:09.987Z,97992.38
2022-12-27T01:50:11.349Z,97985.69
2022-12-27T01:52:12.646Z,98001.97
2022-12-27T01:54:13.981Z,97998.72
2022-12-27T01:56:15.337Z,98001.38
2022-12-27T01:58:16.674Z,98008.31
2022-12-27T02:00:18.061Z,98012.66
2022-12-27T02:02:19.563Z,98014.44
2022-12-27T02:04:21.019Z,98027.22
2022-12-27T02:06:22.373Z,98025.59
2022-12-27T02:08:23.764Z,98027.38
2022-12-27T02:10:25.145Z,98024.91
2022-12-27T02:12:26.632Z,98031.75
2022-12-27T02:14:28.567Z,98041.91
2022-12-27T02:16:30.003Z,98046.22
2022-12-27T02:18:31.403Z,98047.09
2022-12-27T02:20:32.855Z,98033.47
2022-12-27T02:22:54.110Z,97889.88
2022-12-27T02:24:55.443Z,98045.25
2022-12-27T02:26:57.086Z,98050.34
2022-12-27T02:28:58.422Z,98068.03
2022-12-27T02:30:59.919Z,98066.16
2022-12-27T02:33:01.308Z,98069.38
2022-12-27T02:35:02.710Z,98066.59
2022-12-27T02:37:04.074Z,98061.34
2022-12-27T02:39:05.424Z,98061.13
2022-12-27T02:41:25.277Z,98077.16
2022-12-27T02:43:44.983Z,98074.47
2022-12-27T02:46:04.919Z,98076.09
2022-12-27T02:48:25.172Z,98082.00
2022-12-27T02:50:45.244Z,98081.97
2022-12-27T02:53:05.189Z,98080.22
2022-12-27T02:55:06.642Z,98085.28
2022-12-27T02:57:11.130Z,98084.47
2022-12-27T02:59:12.530Z,98091.34
2022-12-27T03:01:32.426Z,98093.13
2022-12-27T03:03:35.523Z,98094.06
2022-12-27T03:05:38.613Z,98094.13
2022-12-27T03:07:39.907Z,98096.81
2022-12-27T03:10:00.204Z,98092.72
2022-12-27T03:12:20.150Z,98098.81
2022-12-27T03:14:40.215Z,98104.84
2022-12-27T03:16:41.770Z,98099.06
2022-12-27T03:18:43.105Z,98108.44
2022-12-27T03:21:02.955Z,98111.97
2022-12-27T03:23:22.871Z,98122.31
2022-12-27T03:25:30.151Z,98130.94
2022-12-27T03:27:31.462Z,98118.28
2022-12-27T03:29:51.499Z,98124.38
2022-12-27T03:32:11.595Z,98132.91
2022-12-27T03:34:31.587Z,98133.78
2022-12-27T03:36:51.432Z,98139.75
2022-12-27T03:38:52.774Z,98145.78
2022-12-27T03:41:12.614Z,98142.38
2022-12-27T03:43:13.960Z,98145.81
2022-12-27T03:45:15.319Z,98140.72
2022-12-27T03:47:16.663Z,98147.47
2022-12-27T03:49:17.956Z,98155.06
2022-12-27T03:51:21.319Z,98157.50
2022-12-27T03:53:22.728Z,98156.53
2022-12-27T03:55:28.434Z,98161.50
2022-12-27T03:57:32.929Z,98160.50
2022-12-27T03:59:34.268Z,98041.06
2022-12-27T04:01:35.616Z,98153.47
2022-12-27T04:03:37.101Z,98162.72
2022-12-27T04:05:38.440Z,98177.06
2022-12-27T04:07:39.791Z,98170.94
2022-12-27T04:09:59.758Z,98169.19
2022-12-27T04:12:19.683Z,98177.59
2022-12-27T04:14:39.815Z,98176.66
2022-12-27T04:16:59.711Z,98180.00
2022-12-27T04:19:19.668Z,98181.66
2022-12-27T04:21:39.627Z,98182.44
2022-12-27T04:23:59.448Z,98194.22
2022-12-27T04:26:19.388Z,98200.06
2022-12-27T04:28:39.269Z,98199.34
2022-12-27T04:30:59.400Z,98195.31
2022-12-27T04:33:19.514Z,98193.78
2022-12-27T04:35:20.867Z,98210.81
2022-12-27T04:37:22.215Z,98201.56
2022-12-27T04:39:23.631Z,98210.25
2022-12-27T04:41:43.495Z,98209.53
2022-12-27T04:44:03.435Z,98210.50
2022-12-27T04:46:23.332Z,98207.19
2022-12-27T04:48:43.665Z,98216.66
2022-12-27T04:51:03.443Z,98204.84
2022-12-27T04:53:23.246Z,98209.13
2022-12-27T04:55:24.851Z,98204.97
2022-12-27T04:57:26.251Z,98218.66
2022-12-27T04:59:46.393Z,98211.94
2022-12-27T05:02:06.098Z,98218.88
2022-12-27T05:04:07.449Z,98216.38
2022-12-27T05:06:08.852Z,98222.34
2022-12-27T05:08:28.896Z,98225.91
2022-12-27T05:10:48.839Z,98232.81
2022-12-27T05:13:08.770Z,98222.69
2022-12-27T05:15:10.109Z,98223.66
2022-12-27T05:17:11.448Z,98230.56
2022-12-27T05:19:12.792Z,98238.25
2022-12-27T05:21:14.214Z,98236.56
2022-12-27T05:23:34.218Z,98232.16
2022-12-27T05:25:35.596Z,98232.72
2022-12-27T05:27:36.893Z,98235.84
2022-12-27T05:29:38.249Z,98232.22
2022-12-27T05:31:39.647Z,98235.31
2022-12-27T05:33:41.035Z,98238.56
2022-12-27T05:35:42.337Z,98237.53
2022-12-27T05:37:43.638Z,98247.63
2022-12-27T05:39:44.976Z,98255.13
2022-12-27T05:41:46.307Z,98255.03
2022-12-27T05:43:47.643Z,98261.72
2022-12-27T05:45:48.933Z,98265.03
2022-12-27T05:47:50.287Z,98276.16
2022-12-27T05:49:51.633Z,98274.31
2022-12-27T05:51:52.970Z,98282.75
2022-12-27T05:53:54.436Z,98274.25
2022-12-27T05:55:55.878Z,98277.66
2022-12-27T05:57:57.200Z,98281.84
2022-12-27T05:59:58.488Z,98280.09
2022-12-27T06:01:59.964Z,98286.19
2022-12-27T06:04:01.452Z,98277.84
2022-12-27T06:06:03.701Z,98278.81
2022-12-27T06:08:04.991Z,98288.34
2022-12-27T06:10:06.289Z,98293.53
2022-12-27T06:12:07.618Z,98300.38
2022-12-27T06:14:08.942Z,98298.78
2022-12-27T06:16:10.307Z,98304.00
2022-12-27T06:18:11.678Z,98302.41
2022-12-27T06:20:13.032Z,98302.56
2022-12-27T06:22:14.410Z,98305.22
2022-12-27T06:24:15.747Z,98302.72
2022-12-27T06:26:17.073Z,98312.22
2022-12-27T06:28:18.411Z,98310.63
2022-12-27T06:30:19.792Z,98308.13
2022-12-27T06:32:21.213Z,98317.50
2022-12-27T06:34:22.577Z,98321.84
2022-12-27T06:36:24.198Z,98319.34
2022-12-27T06:38:25.577Z,98320.25
2022-12-27T06:40:26.918Z,98322.81
2022-12-27T06:42:28.265Z,98321.91
2022-12-27T06:44:29.564Z,98323.66
2022-12-27T06:46:30.867Z,98327.03
2022-12-27T06:48:32.214Z,98326.16
2022-12-27T06:50:33.520Z,98332.94
2022-12-27T06:52:34.887Z,98333.81
2022-12-27T06:54:36.203Z,98334.63
2022-12-27T06:56:37.539Z,98334.53
2022-12-27T06:58:38.838Z,98328.38
2022-12-27T07:00:40.219Z,98329.00
2022-12-27T07:02:42.074Z,98328.84
2022-12-27T07:04:43.560Z,98330.41
2022-12-27T07:06:44.895Z,98200.84
2022-12-27T07:08:46.224Z,98338.72
2022-12-27T07:10:47.637Z,98336.94
2022-12-27T07:12:48.975Z,98335.94
2022-12-27T07:14:50.273Z,98333.31
2022-12-27T07:16:51.620Z,98349.41
2022-12-27T07:18:52.932Z,98348.47
2022-12-27T07:20:54.315Z,98347.81
2022-12-27T07:22:58.850Z,98353.84
2022-12-27T07:25:00.182Z,98359.06
2022-12-27T07:27:02.187Z,98366.84
2022-12-27T07:29:03.542Z,98370.34
2022-12-27T07:31:04.833Z,98379.06
2022-12-27T07:33:06.183Z,98381.69
2022-12-27T07:35:07.510Z,98389.44
2022-12-27T07:37:08.807Z,98394.63
2022-12-27T07:39:10.123Z,98395.56
2022-12-27T07:41:11.448Z,98395.59
2022-12-27T07:43:12.775Z,98400.66
2022-12-27T07:45:14.081Z,98407.56
2022-12-27T07:47:15.378Z,98408.44
2022-12-27T07:49:18.055Z,98408.53
2022-12-27T07:51:19.591Z,98404.41
2022-12-27T07:53:20.889Z,98407.91
2022-12-27T07:55:22.188Z,98405.22
2022-12-27T07:57:23.533Z,98409.53
2022-12-27T07:59:24.877Z,98404.56
2022-12-27T08:01:26.373Z,98411.50
2022-12-27T08:03:27.896Z,98411.59
2022-12-27T08:05:29.523Z,98411.63
2022-12-27T08:07:30.856Z,98410.72
2022-12-27T08:09:32.201Z,98422.59
2022-12-27T08:11:33.616Z,98423.41
2022-12-27T08:13:34.968Z,98424.19
2022-12-27T08:15:36.354Z,98425.84
2022-12-27T08:17:37.679Z,98418.97
2022-12-27T08:19:39.036Z,98431.75
2022-12-27T08:21:40.338Z,98422.44
2022-12-27T08:23:41.641Z,98431.81
2022-12-27T08:25:48.484Z,98427.25
2022-12-27T08:27:50.458Z,98431.84
2022-12-27T08:29:51.811Z,98429.34
2022-12-27T08:31:53.110Z,98437.03
2022-12-27T08:33:58.439Z,98442.13
2022-12-27T08:36:00.230Z,98443.78
2022-12-27T08:38:01.628Z,98448.03
2022-12-27T08:40:03.402Z,98453.97
2022-12-27T08:42:04.813Z,98455.72
2022-12-27T08:44:06.417Z,98454.00
2022-12-27T08:46:08.523Z,98448.97
2022-12-27T08:48:10.026Z,98457.56
2022-12-27T08:50:11.444Z,98455.88
2022-12-27T08:52:12.771Z,98447.47
2022-12-27T08:54:14.094Z,98457.75
2022-12-27T08:56:15.539Z,98453.56
2022-12-27T08:58:19.845Z,98460.25
2022-12-27T09:00:21.146Z,98472.09
2022-12-27T09:02:22.730Z,98465.13
2022-12-27T09:04:24.185Z,98462.06
2022-12-27T09:06:25.829Z,98465.75
2022-12-27T09:08:27.198Z,98468.25
2022-12-27T09:10:28.572Z,98476.25
2022-12-27T09:12:29.879Z,98473.78
2022-12-27T09:14:31.179Z,98472.94
2022-12-27T09:16:34.112Z,98481.38
2022-12-27T09:18:38.279Z,98477.75
2022-12-27T09:20:39.674Z,98463.06
2022-12-27T09:22:40.973Z,98469.97
2022-12-27T09:24:42.266Z,98473.66
2022-12-27T09:26:46.539Z,98474.47
2022-12-27T09:28:47.939Z,98466.78
2022-12-27T09:30:49.296Z,98467.66
2022-12-27T09:32:50.630Z,98470.97
2022-12-27T09:34:51.933Z,98463.09
2022-12-27T09:36:53.332Z,98467.97
2022-12-27T09:38:54.638Z,98462.66
2022-12-27T09:40:55.938Z,98472.75
2022-12-27T09:43:12.578Z,98470.06
2022-12-27T09:45:18.694Z,98473.22
2022-12-27T09:47:19.987Z,98456.59
2022-12-27T09:49:24.343Z,98456.88
2022-12-27T09:51:28.635Z,98452.78
2022-12-27T09:53:29.975Z,98452.00
2022-12-27T09:55:31.282Z,98450.31
2022-12-27T09:57:32.566Z,98446.09
2022-12-27T09:59:34.635Z,98438.44
2022-12-27T10:01:36.067Z,98430.75
2022-12-27T10:03:37.493Z,98441.88
2022-12-27T10:05:39.528Z,98433.41
2022-12-27T10:07:40.895Z,98434.28
2022-12-27T10:09:42.739Z,98441.09
2022-12-27T10:11:44.047Z,98443.69
2022-12-27T10:13:48.314Z,98443.69
2022-12-27T10:15:55.764Z,98443.75
2022-12-27T10:17:57.078Z,98455.75
2022-12-27T10:19:58.372Z,98449.03
2022-12-27T10:21:59.767Z,98439.66
2022-12-27T10:24:01.063Z,98437.16
2022-12-27T10:26:02.407Z,98432.09
2022-12-27T10:28:03.862Z,98433.03
2022-12-27T10:30:05.190Z,98430.56
2022-12-27T10:32:06.524Z,98444.28
2022-12-27T10:34:10.811Z,98439.22
2022-12-27T10:36:12.250Z,98444.56
2022-12-27T10:38:13.585Z,98440.66
2022-12-27T10:40:14.931Z,98437.72
2022-12-27T10:42:16.358Z,98431.69
2022-12-27T10:44:17.810Z,98427.06
2022-12-27T10:46:20.802Z,98427.91
2022-12-27T10:48:22.184Z,98433.03
2022-12-27T10:50:23.525Z,98428.38
2022-12-27T10:52:24.866Z,98441.00
2022-12-27T10:54:26.216Z,98433.56
2022-12-27T10:56:27.551Z,98437.03
2022-12-27T10:58:28.887Z,98442.25
2022-12-27T11:00:30.273Z,98435.25
2022-12-27T11:02:31.718Z,98431.19
2022-12-27T11:04:33.709Z,98432.50
2022-12-27T11:06:35.002Z,98438.06
2022-12-27T11:08:36.322Z,98435.53
2022-12-27T11:10:37.666Z,98434.78
2022-12-27T11:12:39.115Z,98434.22
2022-12-27T11:14:40.449Z,98443.69
2022-12-27T11:16:41.832Z,98438.22
2022-12-27T11:18:43.165Z,98442.47
2022-12-27T11:20:44.826Z,98447.25
2022-12-27T11:22:46.137Z,98439.81
2022-12-27T11:24:47.460Z,98452.72
2022-12-27T11:26:53.526Z,98448.56
2022-12-27T11:28:55.331Z,98447.78
2022-12-27T11:30:56.806Z,98446.53
2022-12-27T11:32:58.133Z,98455.00
2022-12-27T11:34:59.455Z,98451.16
2022-12-27T11:37:06.509Z,98450.59
2022-12-27T11:39:07.814Z,98445.47
2022-12-27T11:41:09.435Z,98452.31
2022-12-27T11:43:10.746Z,98446.44
2022-12-27T11:45:12.080Z,98440.53
2022-12-27T11:47:13.672Z,98452.88
2022-12-27T11:49:15.053Z,98452.88
2022-12-27T11:51:16.394Z,98452.72
2022-12-27T11:53:17.696Z,98446.25
2022-12-27T11:55:19.086Z,98445.59
2022-12-27T11:57:20.412Z,98446.50
2022-12-27T11:59:21.751Z,98440.59
2022-12-27T12:01:23.171Z,98438.94
2022-12-27T12:03:24.546Z,98441.50
2022-12-27T12:05:25.902Z,98438.97
2022-12-27T12:07:30.395Z,98433.03
2022-12-27T12:09:31.767Z,98427.94
2022-12-27T12:11:33.066Z,98426.28
2022-12-27T12:13:34.397Z,98427.16
2022-12-27T12:15:35.693Z,98432.34
2022-12-27T12:17:39.905Z,98431.50
2022-12-27T12:19:41.503Z,98430.66
2022-12-27T12:21:45.956Z,98440.09
2022-12-27T12:23:47.247Z,98444.38
2022-12-27T12:25:51.462Z,98438.41
2022-12-27T12:27:52.851Z,98443.63
2022-12-27T12:29:54.178Z,98440.25
2022-12-27T12:31:55.545Z,98427.47
2022-12-27T12:33:59.946Z,98447.13
2022-12-27T12:36:01.249Z,98448.81
2022-12-27T12:38:02.625Z,98446.28
2022-12-27T12:40:03.987Z,98440.31
2022-12-27T12:42:05.278Z,98437.75
2022-12-27T12:44:09.542Z,98443.72
2022-12-27T12:46:10.889Z,98438.59
2022-12-27T12:48:12.216Z,98440.31
2022-12-27T12:50:13.904Z,98442.00
2022-12-27T12:52:15.285Z,98444.53
2022-12-27T12:54:16.583Z,98443.72
2022-12-27T12:56:17.956Z,98436.06
2022-12-27T12:58:19.243Z,98444.56
2022-12-27T13:00:21.024Z,98448.81
2022-12-27T13:02:22.559Z,98444.50
2022-12-27T13:04:26.904Z,98444.47
2022-12-27T13:06:28.200Z,98445.41
2022-12-27T13:08:29.529Z,98449.69
2022-12-27T13:10:30.837Z,98450.66
2022-12-27T13:12:32.139Z,98446.53
2022-12-27T13:14:33.444Z,98445.75
2022-12-27T13:16:34.783Z,98452.69
2022-12-27T13:18:36.139Z,98453.56
2022-12-27T13:20:40.512Z,98450.16
2022-12-27T13:22:41.918Z,98456.13
2022-12-27T13:24:43.226Z,98461.22
2022-12-27T13:26:44.605Z,98453.50
2022-12-27T13:28:45.980Z,98453.41
2022-12-27T13:30:47.354Z,98466.09
2022-12-27T13:32:48.706Z,98466.03
2022-12-27T13:34:53.099Z,98464.28
2022-12-27T13:36:54.398Z,98465.03
2022-12-27T13:38:55.739Z,98470.97
2022-12-27T13:40:57.034Z,98470.06
2022-12-27T13:42:58.484Z,98471.75
2022-12-27T13:44:59.776Z,98476.78
2022-12-27T13:47:01.242Z,98472.50
2022-12-27T13:49:02.758Z,98485.19
2022-12-27T13:51:04.582Z,98479.22
2022-12-27T13:53:05.892Z,98489.41
2022-12-27T13:55:07.292Z,98486.84
2022-12-27T13:57:08.628Z,98480.84
2022-12-27T13:59:09.947Z,98483.34
2022-12-27T14:01:11.318Z,98479.03
2022-12-27T14:03:12.685Z,98482.50
2022-12-27T14:05:14.113Z,98486.72
2022-12-27T14:07:15.495Z,98492.66
2022-12-27T14:09:16.881Z,98491.00
2022-12-27T14:11:18.243Z,98490.16
2022-12-27T14:13:19.583Z,98498.72
2022-12-27T14:15:24.203Z,98488.50
2022-12-27T14:17:25.586Z,98486.84
2022-12-27T14:19:26.946Z,98489.41
2022-12-27T14:21:28.243Z,98492.84
2022-12-27T14:23:29.535Z,98489.47
2022-12-27T14:25:30.866Z,98495.47
2022-12-27T14:27:32.239Z,98492.97
2022-12-27T14:29:33.552Z,98501.53
2022-12-27T14:31:34.923Z,98503.31
2022-12-27T14:33:36.254Z,98504.19
2022-12-27T14:35:37.599Z,98505.94
2022-12-27T14:37:38.969Z,98505.09
2022-12-27T14:39:40.372Z,98509.44
2022-12-27T14:41:41.759Z,98506.06
2022-12-27T14:43:43.057Z,98505.25
2022-12-27T14:45:45.030Z,98517.22
2022-12-27T14:47:46.443Z,98512.09
2022-12-27T14:49:47.731Z,98515.56
2022-12-27T14:52:11.916Z,98517.25
2022-12-27T14:54:10.390Z,98521.50
2022-12-27T14:56:12.702Z,98523.25
2022-12-27T14:58:14.087Z,98518.03
2022-12-27T15:00:15.466Z,98529.94
2022-12-27T15:02:17.061Z,98536.69
2022-12-27T15:04:18.419Z,98534.97
2022-12-27T15:06:19.730Z,98530.69
2022-12-27T15:08:21.102Z,98539.19
2022-12-27T15:10:22.440Z,98538.28
2022-12-27T15:12:23.759Z,98545.03
2022-12-27T15:14:25.051Z,98548.44
2022-12-27T15:16:26.444Z,98548.41
2022-12-27T15:18:27.795Z,98544.97
2022-12-27T15:20:29.126Z,98551.78
2022-12-27T15:22:30.533Z,98544.97
2022-12-27T15:24:41.058Z,98547.50
2022-12-27T15:26:42.403Z,98544.91
2022-12-27T15:28:43.744Z,98544.03
2022-12-27T15:30:45.147Z,98541.47
2022-12-27T15:32:52.650Z,98548.25
2022-12-27T15:34:54.434Z,98551.66
2022-12-27T15:36:55.728Z,98545.69
2022-12-27T15:38:57.984Z,98539.78
2022-12-27T15:40:59.323Z,98541.44
2022-12-27T15:43:00.628Z,98535.47
2022-12-27T15:45:01.923Z,98538.06
2022-12-27T15:47:06.131Z,98533.00
2022-12-27T15:49:07.956Z,98541.50
2022-12-27T15:51:09.283Z,98534.69
2022-12-27T15:53:13.813Z,98541.56
2022-12-27T15:55:15.112Z,98545.00
2022-12-27T15:57:16.986Z,98548.44
2022-12-27T15:59:18.286Z,98547.59
2022-12-27T16:01:25.685Z,98549.25
2022-12-27T16:03:27.575Z,98539.94
2022-12-27T16:05:30.987Z,98543.38
2022-12-27T16:07:32.282Z,98546.75
2022-12-27T16:09:33.587Z,98538.28
2022-12-27T16:11:34.941Z,98533.19
2022-12-27T16:13:41.860Z,98534.06
2022-12-27T16:15:44.985Z,98531.50
2022-12-27T16:17:49.109Z,98535.78
2022-12-27T16:19:50.658Z,98531.53
2022-12-27T16:21:51.960Z,98546.00
2022-12-27T16:23:53.312Z,98540.94
2022-12-27T16:25:54.612Z,98534.97
2022-12-27T16:27:58.899Z,98539.19
2022-12-27T16:30:00.231Z,98527.31
2022-12-27T16:32:01.579Z,98535.88
2022-12-27T16:34:09.197Z,98526.47
2022-12-27T16:36:10.496Z,98530.69
2022-12-27T16:38:11.803Z,98528.94
2022-12-27T16:40:13.138Z,98525.53
2022-12-27T16:42:14.485Z,98524.72
2022-12-27T16:44:15.811Z,98526.38
2022-12-27T16:46:18.074Z,98527.19
2022-12-27T16:48:20.079Z,98533.97
2022-12-27T16:50:21.416Z,98532.31
2022-12-27T16:52:22.701Z,98532.28
2022-12-27T16:54:24.060Z,98522.91
2022-12-27T16:56:25.426Z,98533.13
2022-12-27T16:58:27.227Z,98533.13
2022-12-27T17:00:28.556Z,98532.25
2022-12-27T17:02:30.043Z,98527.97
2022-12-27T17:04:31.506Z,98524.56
2022-12-27T17:06:34.317Z,98521.16
2022-12-27T17:08:39.195Z,98522.00
2022-12-27T17:10:40.508Z,98516.94
2022-12-27T17:12:41.867Z,98524.53
2022-12-27T17:14:44.264Z,98522.81
2022-12-27T17:16:48.724Z,98518.56
2022-12-27T17:18:50.131Z,98523.66
2022-12-27T17:20:52.237Z,98521.94
2022-12-27T17:22:53.536Z,98524.53
2022-12-27T17:24:54.855Z,98517.66
2022-12-27T17:26:56.211Z,98513.41
2022-12-27T17:28:57.547Z,98516.00
2022-12-27T17:30:58.881Z,98528.78
2022-12-27T17:33:00.213Z,98526.22
2022-12-27T17:35:01.502Z,98513.50
2022-12-27T17:37:03.811Z,98521.72
2022-12-27T17:39:05.138Z,98528.06
2022-12-27T17:41:10.423Z,98520.16
2022-12-27T17:43:35.177Z,98530.03
2022-12-27T17:45:36.545Z,98534.25
2022-12-27T17:47:37.884Z,98531.16
2022-12-27T17:49:39.218Z,98537.03
2022-12-27T17:51:44.872Z,98540.22
2022-12-27T17:54:04.832Z,98545.97
2022-12-27T17:56:24.819Z,98549.06
2022-12-27T17:58:26.170Z,98538.81
2022-12-27T18:00:29.169Z,98538.16
2022-12-27T18:02:30.604Z,98549.75
2022-12-27T18:04:34.633Z,98542.13
2022-12-27T18:06:35.990Z,98544.16
2022-12-27T18:08:37.316Z,98538.97
2022-12-27T18:10:38.611Z,98543.16
2022-12-27T18:12:42.720Z,98540.19
2022-12-27T18:14:44.033Z,98542.53
2022-12-27T18:16:48.405Z,98539.19
2022-12-27T18:18:52.826Z,98537.66
2022-12-27T18:20:54.130Z,98548.84
2022-12-27T18:22:55.551Z,98558.03
2022-12-27T18:24:57.003Z,98565.09
2022-12-27T18:26:58.339Z,98554.88
2022-12-27T18:28:59.969Z,98552.31
2022-12-27T18:31:01.512Z,98554.78
2022-12-27T18:33:11.928Z,98552.72
2022-12-27T18:35:13.231Z,98557.47
2022-12-27T18:37:14.588Z,98550.03
2022-12-27T18:39:15.889Z,98557.72
2022-12-27T18:41:17.186Z,98550.97
2022-12-27T18:43:21.443Z,98551.78
2022-12-27T18:45:22.835Z,98544.03
2022-12-27T18:47:24.198Z,98544.75
2022-12-27T18:49:25.639Z,98547.22
2022-12-27T18:51:26.989Z,98548.00
2022-12-27T18:53:29.162Z,98547.06
2022-12-27T18:55:32.173Z,98549.50
2022-12-27T18:57:33.736Z,98546.00
2022-12-27T18:59:36.055Z,98551.88
2022-12-27T19:01:38.189Z,98544.97
2022-12-27T19:03:41.021Z,98544.91
2022-12-27T19:05:43.201Z,98547.44
2022-12-27T19:07:44.503Z,98543.97
2022-12-27T19:09:45.823Z,98544.78
2022-12-27T19:11:47.171Z,98542.22
2022-12-27T19:13:48.502Z,98538.81
2022-12-27T19:15:52.758Z,98536.25
2022-12-27T19:17:54.260Z,98528.59
2022-12-27T19:19:56.164Z,98533.75
2022-12-27T19:21:57.712Z,98537.22
2022-12-27T19:23:59.049Z,98542.38
2022-12-27T19:26:00.334Z,98545.38
2022-12-27T19:28:01.849Z,98537.25
2022-12-27T19:30:04.463Z,98541.25
2022-12-27T19:32:05.863Z,98534.91
2022-12-27T19:34:16.179Z,98535.00
2022-12-27T19:36:17.997Z,98545.19
2022-12-27T19:38:19.427Z,98538.88
2022-12-27T19:40:20.760Z,98547.75
2022-12-27T19:42:22.090Z,98551.97
2022-12-27T19:44:23.414Z,98548.97
2022-12-27T19:46:30.967Z,98548.16
2022-12-27T19:48:32.748Z,98551.50
2022-12-27T19:50:34.063Z,98552.13
2022-12-27T19:52:35.420Z,98548.94
2022-12-27T19:54:39.417Z,98549.25
2022-12-27T19:56:40.732Z,98546.28
2022-12-27T19:58:42.651Z,98550.31
2022-12-27T20:00:44.025Z,98548.09
2022-12-27T20:02:48.466Z,98545.34
2022-12-27T20:04:50.104Z,98548.69
2022-12-27T20:06:51.422Z,98540.66
2022-12-27T20:08:52.749Z,98542.56
2022-12-27T20:10:54.142Z,98539.66
2022-12-27T20:12:55.475Z,98532.34
2022-12-27T20:14:56.858Z,98527.03
2022-12-27T20:16:58.249Z,98534.16
2022-12-27T20:18:59.798Z,98531.69
2022-12-27T20:21:07.077Z,98537.47
2022-12-27T20:23:08.401Z,98527.19
2022-12-27T20:25:09.709Z,98530.63
2022-12-27T20:27:11.274Z,98529.56
2022-12-27T20:29:12.790Z,98530.50
2022-12-27T20:31:14.179Z,98534.84
2022-12-27T20:33:15.875Z,98528.81
2022-12-27T20:35:17.210Z,98516.78
2022-12-27T20:37:24.127Z,98518.94
2022-12-27T20:39:25.943Z,98514.44
2022-12-27T20:41:28.496Z,98516.81
2022-12-27T20:43:29.794Z,98510.75
2022-12-27T20:45:31.162Z,98502.16
2022-12-27T20:47:32.503Z,98507.16
2022-12-27T20:49:33.853Z,98509.56
2022-12-27T20:51:35.146Z,98505.38
2022-12-27T20:53:40.341Z,98510.41
2022-12-27T20:55:41.917Z,98501.34
2022-12-27T20:57:43.331Z,98500.53
2022-12-27T20:59:44.835Z,98507.22
2022-12-27T21:01:47.118Z,98513.22
2022-12-27T21:03:50.624Z,98508.88
2022-12-27T21:05:51.960Z,98505.56
2022-12-27T21:07:53.263Z,98502.44
2022-12-27T21:09:57.759Z,98513.25
2022-12-27T21:11:59.310Z,98514.06
2022-12-27T21:14:00.917Z,98509.84
2022-12-27T21:16:04.941Z,98504.78
2022-12-27T21:18:06.313Z,98500.53
2022-12-27T21:20:10.957Z,98502.34
2022-12-27T21:22:12.300Z,98495.63
2022-12-27T21:24:14.361Z,98515.28
2022-12-27T21:26:15.790Z,98496.59
2022-12-27T21:28:17.081Z,98484.22
2022-12-27T21:30:18.476Z,98487.19
2022-12-27T21:32:19.815Z,98487.81
2022-12-27T21:34:24.363Z,98485.09
2022-12-27T21:36:25.748Z,98492.63
2022-12-27T21:38:27.059Z,98490.88
2022-12-27T21:40:31.020Z,98485.75
2022-12-27T21:42:32.359Z,98484.00
2022-12-27T21:44:35.407Z,98485.75
2022-12-27T21:46:36.822Z,98482.28
2022-12-27T21:48:38.304Z,98484.72
2022-12-27T21:50:42.457Z,98478.03
2022-12-27T21:52:43.741Z,98483.88
2022-12-27T21:54:45.101Z,98485.81
2022-12-27T21:56:46.723Z,98484.00
2022-12-27T21:58:57.618Z,98479.66
2022-12-27T22:01:01.431Z,98485.47
2022-12-27T22:03:05.172Z,98479.94
2022-12-27T22:05:06.618Z,98476.38
2022-12-27T22:07:10.751Z,98472.78
2022-12-27T22:09:12.172Z,98471.81
2022-12-27T22:11:13.497Z,98465.78
2022-12-27T22:13:14.791Z,98476.94
2022-12-27T22:15:16.094Z,98469.25
2022-12-27T22:17:17.423Z,98472.63
2022-12-27T22:19:18.864Z,98472.44
2022-12-27T22:21:20.196Z,98469.81
2022-12-27T22:23:21.495Z,98464.66
2022-12-27T22:25:22.828Z,98464.66
2022-12-27T22:27:24.160Z,98474.09
2022-12-27T22:29:26.736Z,98471.56
2022-12-27T22:31:30.731Z,98469.88
2022-12-27T22:33:32.135Z,98465.72
2022-12-27T22:35:33.434Z,98464.94
2022-12-27T22:37:34.785Z,98467.25
2022-12-27T22:39:36.091Z,98476.88
2022-12-27T22:41:37.440Z,98464.13
2022-12-27T22:43:38.797Z,98457.84
2022-12-27T22:45:40.086Z,98462.81
2022-12-27T22:47:41.448Z,98463.13
2022-12-27T22:49:42.926Z,98458.34
2022-12-27T22:51:44.434Z,98457.88
2022-12-27T22:53:45.742Z,98458.84
2022-12-27T22:55:48.955Z,98453.28
2022-12-27T22:57:50.242Z,98454.81
2022-12-27T22:59:51.539Z,98449.06
2022-12-27T23:01:53.013Z,98457.59
2022-12-27T23:03:54.353Z,98466.53
2022-12-27T23:05:55.643Z,98461.59
2022-12-27T23:08:04.547Z,98471.00
2022-12-27T23:10:07.612Z,98461.72
2022-12-27T23:12:08.910Z,98465.31
2022-12-27T23:14:10.243Z,98464.56
2022-12-27T23:16:11.650Z,98467.91
2022-12-27T23:18:12.993Z,98460.97
2022-12-27T23:20:14.336Z,98459.81
2022-12-27T23:22:15.667Z,98463.75
2022-12-27T23:24:16.967Z,98466.31
2022-12-27T23:26:18.366Z,98458.56
2022-12-27T23:28:19.692Z,98452.41
2022-12-27T23:30:22.985Z,98460.78
2022-12-27T23:32:24.298Z,98448.72
2022-12-27T23:34:28.681Z,98444.47
2022-12-27T23:36:30.227Z,98440.22
2022-12-27T23:38:31.519Z,98441.94
2022-12-27T23:40:32.806Z,98437.72
2022-12-27T23:42:34.153Z,98426.28
2022-12-27T23:44:35.509Z,98434.94
2022-12-27T23:46:37.527Z,98431.81
2022-12-27T23:48:38.847Z,98423.00
2022-12-27T23:50:40.185Z,98415.84
2022-12-27T23:52:41.520Z,98414.31
2022-12-27T23:54:42.855Z,98414.56
2022-12-27T23:56:44.184Z,98407.44
2022-12-27T23:58:45.524Z,98407.22
